createdAt,value
2023-03-11T00:46:18.988Z,17.95
2023-03-11T00:47:18.986Z,17.94
2023-03-11T00:48:19.058Z,17.95
2023-03-11T00:49:19.126Z,17.96
2023-03-11T00:50:19.935Z,17.96
2023-03-11T00:51:19.273Z,17.96
2023-03-11T00:52:19.354Z,17.94
2023-03-11T00:53:19.407Z,17.95
2023-03-11T00:54:19.476Z,17.94
2023-03-11T00:55:19.555Z,17.94
2023-03-11T00:56:19.618Z,17.95
2023-03-11T00:57:19.699Z,17.94
2023-03-11T00:58:19.760Z,17.95
2023-03-11T00:59:19.823Z,17.96
2023-03-11T01:00:19.891Z,17.96
2023-03-11T01:01:19.993Z,17.96
2023-03-11T01:02:20.023Z,17.95
2023-03-11T01:03:20.089Z,17.95
2023-03-11T01:04:20.193Z,17.96
2023-03-11T01:05:20.216Z,17.96
2023-03-11T01:06:20.282Z,17.95
2023-03-11T01:07:20.355Z,17.93
2023-03-11T01:08:20.435Z,17.94
2023-03-11T01:09:20.560Z,17.95
2023-03-11T01:10:20.563Z,17.92
2023-03-11T01:11:20.627Z,17.92
2023-03-11T01:12:20.709Z,17.92
2023-03-11T01:13:20.787Z,17.92
2023-03-11T01:14:20.840Z,17.91
2023-03-11T01:15:20.914Z,17.91
2023-03-11T01:16:21.043Z,17.91
2023-03-11T01:17:21.045Z,17.91
2023-03-11T01:18:21.120Z,17.91
2023-03-11T01:19:21.184Z,17.91
2023-03-11T01:20:21.250Z,17.91
2023-03-11T01:21:21.321Z,17.91
2023-03-11T01:22:21.394Z,17.90
2023-03-11T01:23:21.459Z,17.90
2023-03-11T01:24:21.528Z,17.90
2023-03-11T01:25:21.622Z,17.89
2023-03-11T01:26:21.690Z,17.90
2023-03-11T01:27:21.746Z,17.90
2023-03-11T01:28:21.811Z,17.89
2023-03-11T01:29:21.886Z,17.89
2023-03-11T01:30:21.956Z,17.89
2023-03-11T01:31:22.054Z,17.89
2023-03-11T01:32:22.129Z,17.88
2023-03-11T01:33:22.169Z,17.88
2023-03-11T01:34:22.947Z,17.88
2023-03-11T01:35:22.329Z,17.88
2023-03-11T01:36:22.446Z,17.87
2023-03-11T01:37:22.446Z,17.87
2023-03-11T01:38:22.542Z,17.86
2023-03-11T01:39:22.590Z,17.87
2023-03-11T01:40:22.656Z,17.86
2023-03-11T01:41:22.744Z,17.85
2023-03-11T01:42:22.795Z,17.83
2023-03-11T01:43:22.862Z,17.84
2023-03-11T01:44:22.941Z,17.84
2023-03-11T01:45:23.012Z,17.84
2023-03-11T01:46:23.147Z,17.85
2023-03-11T01:47:23.170Z,17.84
2023-03-11T01:48:23.229Z,17.85
2023-03-11T01:49:23.296Z,17.84
2023-03-11T01:50:23.364Z,17.83
2023-03-11T01:51:23.439Z,17.83
2023-03-11T01:52:23.544Z,17.84
2023-03-11T01:53:23.663Z,17.83
2023-03-11T02:54:28.970Z,17.78
2023-03-11T03:03:28.980Z,17.75
2023-03-11T03:04:29.095Z,17.74
2023-03-11T03:05:29.143Z,17.74
2023-03-11T03:06:29.217Z,17.74
2023-03-11T03:07:29.299Z,17.74
2023-03-11T03:08:29.369Z,17.74
2023-03-11T03:09:29.454Z,17.74
2023-03-11T03:10:29.534Z,17.73
2023-03-11T03:11:29.623Z,17.72
2023-03-11T03:12:29.688Z,17.73
2023-03-11T03:13:29.772Z,17.73
2023-03-11T03:14:29.852Z,17.73
2023-03-11T05:05:39.024Z,17.57
2023-03-11T05:06:39.023Z,17.57
2023-03-11T05:07:39.137Z,17.57
2023-03-11T05:08:39.210Z,17.56
2023-03-11T05:09:39.306Z,17.56
2023-03-11T05:10:39.397Z,17.55
2023-03-11T05:11:39.482Z,17.56
2023-03-11T05:12:39.573Z,17.56
2023-03-11T05:13:39.654Z,17.56
2023-03-11T05:14:39.750Z,17.57
2023-03-11T05:15:40.030Z,17.56
2023-03-11T05:16:39.993Z,17.57
2023-03-11T05:17:40.019Z,17.58
2023-03-11T05:18:40.097Z,17.57
2023-03-11T05:19:40.189Z,17.57
2023-03-11T05:20:40.270Z,17.57
2023-03-11T05:21:40.432Z,17.57
2023-03-11T05:22:40.433Z,17.57
2023-03-11T05:23:40.526Z,17.57
2023-03-11T05:24:40.604Z,17.57
2023-03-11T05:25:40.777Z,17.58
2023-03-11T05:26:40.805Z,17.58
2023-03-11T05:27:40.886Z,17.58
2023-03-11T05:28:40.957Z,17.59
2023-03-11T05:29:41.046Z,17.59
2023-03-11T05:30:41.130Z,17.58
2023-03-11T05:31:41.204Z,17.58
2023-03-11T05:32:41.335Z,17.56
2023-03-11T05:33:41.384Z,17.58
2023-03-11T05:34:41.444Z,17.57
2023-03-11T05:35:41.591Z,17.57
2023-03-11T05:36:42.023Z,17.58
2023-03-11T05:37:41.678Z,17.56
2023-03-11T05:38:41.798Z,17.55
2023-03-11T05:39:41.929Z,17.55
2023-03-11T05:40:41.946Z,17.54
2023-03-11T05:41:42.035Z,17.55
2023-03-11T05:42:42.131Z,17.55
2023-03-11T05:43:42.199Z,17.55
2023-03-11T05:44:42.299Z,17.54
2023-03-11T05:45:42.361Z,17.55
2023-03-11T05:46:42.495Z,17.54
2023-03-11T05:47:42.520Z,17.55
2023-03-11T05:48:42.607Z,17.54
2023-03-11T05:49:42.695Z,17.55
2023-03-11T05:50:42.783Z,17.54
2023-03-11T05:51:42.874Z,17.54
2023-03-11T05:52:42.943Z,17.53
2023-03-11T05:53:43.020Z,17.51
2023-03-11T05:54:43.153Z,17.52
2023-03-11T05:55:43.182Z,17.50
2023-03-11T05:56:43.260Z,17.51
2023-03-11T05:57:43.360Z,17.52
2023-03-11T05:58:43.422Z,17.52
2023-03-11T05:59:43.512Z,17.52
2023-03-11T06:00:43.589Z,17.52
2023-03-11T06:01:43.664Z,17.51
2023-03-11T06:02:43.744Z,17.50
2023-03-11T06:03:43.865Z,17.51
2023-03-11T06:04:43.978Z,17.51
2023-03-11T06:05:44.007Z,17.51
2023-03-11T06:06:44.115Z,17.51
2023-03-11T06:07:44.200Z,17.52
2023-03-11T06:08:45.031Z,17.52
2023-03-11T06:09:44.355Z,17.52
2023-03-11T06:10:44.444Z,17.52
2023-03-11T06:11:44.545Z,17.53
2023-03-11T06:12:44.604Z,17.52
2023-03-11T06:13:44.676Z,17.53
2023-03-11T06:14:44.759Z,17.52
2023-03-11T06:15:44.854Z,17.52
2023-03-11T06:16:44.949Z,17.52
2023-03-11T06:17:45.022Z,17.50
2023-03-11T06:18:45.122Z,17.49
2023-03-11T06:19:45.263Z,17.50
2023-03-11T06:20:45.333Z,17.51
2023-03-11T06:21:45.373Z,17.50
2023-03-11T06:22:45.459Z,17.51
2023-03-11T06:23:45.575Z,17.51
2023-03-11T06:24:45.701Z,17.50
2023-03-11T06:25:45.733Z,17.51
2023-03-11T06:26:45.829Z,17.50
2023-03-11T06:27:45.913Z,17.50
2023-03-11T06:28:46.004Z,17.50
2023-03-11T06:29:48.586Z,17.49
2023-03-11T06:30:46.315Z,17.49
2023-03-11T06:31:46.440Z,17.49
2023-03-11T06:32:46.515Z,17.49
2023-03-11T06:33:46.566Z,17.47
2023-03-11T06:34:46.664Z,17.47
2023-03-11T06:35:46.812Z,17.48
2023-03-11T06:36:46.837Z,17.47
2023-03-11T06:37:46.989Z,17.48
2023-03-11T06:38:47.013Z,17.48
2023-03-11T06:39:47.088Z,17.47
2023-03-11T06:40:47.255Z,17.46
2023-03-11T06:41:47.265Z,17.46
2023-03-11T06:42:47.328Z,17.44
2023-03-11T06:43:47.468Z,17.45
2023-03-11T06:44:47.495Z,17.44
2023-03-11T06:45:47.591Z,17.44
2023-03-11T06:46:47.671Z,17.44
2023-03-11T06:47:47.758Z,17.44
2023-03-11T06:48:47.917Z,17.45
2023-03-11T06:49:47.937Z,17.45
2023-03-11T06:50:48.516Z,17.44
2023-03-11T06:51:48.089Z,17.44
2023-03-11T06:52:48.183Z,17.44
2023-03-11T06:53:48.257Z,17.45
2023-03-11T06:54:48.323Z,17.45
2023-03-11T06:55:48.411Z,17.46
2023-03-11T06:56:48.486Z,17.45
2023-03-11T06:57:48.573Z,17.46
2023-03-11T06:58:48.656Z,17.47
2023-03-11T06:59:48.740Z,17.47
2023-03-11T07:00:48.837Z,17.47
2023-03-11T07:01:48.889Z,17.47
2023-03-11T07:02:48.974Z,17.47
2023-03-11T07:03:49.100Z,17.47
2023-03-11T07:04:49.150Z,17.49
2023-03-11T07:05:49.224Z,17.48
2023-03-11T07:06:49.319Z,17.48
2023-03-11T07:07:49.397Z,17.48
2023-03-11T07:08:49.483Z,17.48
2023-03-11T07:09:49.562Z,17.48
2023-03-11T07:10:49.652Z,17.47
2023-03-11T07:11:49.740Z,17.48
2023-03-11T07:12:49.824Z,17.47
2023-03-11T07:13:49.892Z,17.48
2023-03-11T07:14:49.980Z,17.48
2023-03-11T07:15:50.147Z,17.48
2023-03-11T07:16:50.280Z,17.47
2023-03-11T07:17:50.249Z,17.46
2023-03-11T07:18:50.342Z,17.46
2023-03-11T07:19:50.418Z,17.46
2023-03-11T07:20:50.505Z,17.46
2023-03-11T07:21:50.675Z,17.47
2023-03-11T07:22:50.679Z,17.45
2023-03-11T07:23:50.770Z,17.46
2023-03-11T07:24:50.863Z,17.46
2023-03-11T07:25:50.942Z,17.46
2023-03-11T07:26:51.046Z,17.46
2023-03-11T07:27:51.142Z,17.44
2023-03-11T07:28:51.213Z,17.45
2023-03-11T07:29:51.303Z,17.45
2023-03-11T07:30:51.398Z,17.44
2023-03-11T07:31:51.533Z,17.43
2023-03-11T07:32:51.607Z,17.43
2023-03-11T07:33:51.652Z,17.42
2023-03-11T07:34:51.751Z,17.42
2023-03-11T07:35:51.877Z,17.42
2023-03-11T07:36:51.989Z,17.41
2023-03-11T07:37:52.014Z,17.41
2023-03-11T07:38:52.100Z,17.41
2023-03-11T07:39:52.252Z,17.42
2023-03-11T07:40:52.266Z,17.42
2023-03-11T07:41:52.341Z,17.42
2023-03-11T07:42:52.435Z,17.42
2023-03-11T07:43:52.519Z,17.42
2023-03-11T07:44:52.708Z,17.42
2023-03-11T07:45:52.722Z,17.41
2023-03-11T07:46:52.822Z,17.41
2023-03-11T07:47:52.900Z,17.41
2023-03-11T07:48:52.977Z,17.41
2023-03-11T07:49:53.071Z,17.40
2023-03-11T07:50:53.154Z,17.39
2023-03-11T07:51:53.249Z,17.40
2023-03-11T07:52:53.350Z,17.40
2023-03-11T07:53:53.450Z,17.40
2023-03-11T07:54:53.532Z,17.41
2023-03-11T07:55:53.626Z,17.42
2023-03-11T07:56:53.703Z,17.43
2023-03-11T07:57:53.804Z,17.42
2023-03-11T07:58:53.903Z,17.41
2023-03-11T07:59:53.985Z,17.43
2023-03-11T08:00:54.074Z,17.43
2023-03-11T08:01:54.162Z,17.43
2023-03-11T08:02:54.250Z,17.43
2023-03-11T08:03:54.379Z,17.43
2023-03-11T08:04:54.411Z,17.43
2023-03-11T08:05:54.499Z,17.43
2023-03-11T08:06:54.599Z,17.43
2023-03-11T08:07:54.683Z,17.43
2023-03-11T08:08:54.763Z,17.43
2023-03-11T08:09:54.846Z,17.43
2023-03-11T08:10:54.946Z,17.42
2023-03-11T08:54:58.961Z,17.43
2023-03-11T08:55:59.058Z,17.43
2023-03-11T08:56:59.157Z,17.43
2023-03-11T08:57:59.227Z,17.42
2023-03-11T08:58:59.327Z,17.42
2023-03-11T08:59:59.381Z,17.43
2023-03-11T09:00:59.443Z,17.42
2023-03-11T09:01:59.539Z,17.42
2023-03-11T09:02:59.636Z,17.42
2023-03-11T09:03:59.725Z,17.43
2023-03-11T09:05:59.900Z,17.43
2023-03-11T10:49:09.116Z,17.39
2023-03-11T10:54:08.974Z,17.37
2023-03-11T10:55:09.056Z,17.37
2023-03-11T10:56:09.120Z,17.37
2023-03-11T10:57:09.196Z,17.37
2023-03-11T10:58:09.293Z,17.36
2023-03-11T10:59:09.347Z,17.36
2023-03-11T11:00:09.425Z,17.36
2023-03-11T11:01:09.524Z,17.36
2023-03-11T11:02:09.586Z,17.36
2023-03-11T11:03:09.625Z,17.36
2023-03-11T11:04:09.755Z,17.36
2023-03-11T11:05:09.804Z,17.38
2023-03-11T11:06:09.880Z,17.38
2023-03-11T11:07:09.952Z,17.36
2023-03-11T11:08:10.019Z,17.35
2023-03-11T11:09:10.077Z,17.37
2023-03-11T11:10:10.133Z,17.37
2023-03-11T11:11:10.194Z,17.39
2023-03-11T11:12:10.267Z,17.37
2023-03-11T11:13:10.335Z,17.37
2023-03-11T11:14:10.435Z,17.35
2023-03-11T11:15:10.451Z,17.34
2023-03-11T11:16:10.521Z,17.35
2023-03-11T11:17:10.519Z,17.35
2023-03-11T11:18:10.561Z,17.34
2023-03-11T11:19:10.619Z,17.35
2023-03-11T11:20:10.693Z,17.35
2023-03-11T11:21:10.769Z,17.35
2023-03-11T11:22:10.840Z,17.34
2023-03-11T11:23:10.917Z,17.34
2023-03-11T11:24:11.003Z,17.33
2023-03-11T11:25:11.141Z,17.33
2023-03-11T11:26:11.119Z,17.33
2023-03-11T11:27:11.250Z,17.33
2023-03-11T11:28:11.256Z,17.33
2023-03-11T11:29:11.332Z,17.32
2023-03-11T11:30:11.413Z,17.33
2023-03-11T11:31:11.524Z,17.33
2023-03-11T11:32:11.571Z,17.33
2023-03-11T13:37:14.396Z,17.25
2023-03-11T13:38:14.446Z,17.24
2023-03-11T13:39:14.485Z,17.24
2023-03-11T13:40:14.585Z,17.24
2023-03-11T13:41:14.542Z,17.24
2023-03-11T13:42:14.571Z,17.25
2023-03-11T13:43:14.597Z,17.23
2023-03-11T13:44:14.612Z,17.24
2023-03-11T13:45:14.649Z,17.23
2023-03-11T13:46:14.746Z,17.25
2023-03-11T13:47:14.733Z,17.24
2023-03-11T13:48:14.806Z,17.24
2023-03-11T13:49:14.783Z,17.24
2023-03-11T13:50:14.809Z,17.23
2023-03-11T13:51:14.815Z,17.24
2023-03-11T13:52:14.931Z,17.24
2023-03-11T13:53:14.861Z,17.24
2023-03-11T13:54:14.889Z,17.23
2023-03-11T13:55:14.918Z,17.24
2023-03-11T13:56:14.929Z,17.25
2023-03-11T13:57:14.958Z,17.26
2023-03-11T13:58:14.990Z,17.25
2023-03-11T13:59:15.024Z,17.26
2023-03-11T14:00:15.879Z,17.24
2023-03-11T14:01:15.092Z,17.24
2023-03-11T14:02:15.082Z,17.24
2023-03-11T14:03:15.125Z,17.23
2023-03-11T14:04:15.180Z,17.23
2023-03-11T14:05:15.171Z,17.21
2023-03-11T14:06:16.909Z,17.21
2023-03-11T14:07:15.274Z,17.21
2023-03-11T14:08:15.236Z,17.21
2023-03-11T14:09:15.248Z,17.20
2023-03-11T14:10:15.269Z,17.19
2023-03-11T14:11:15.356Z,17.19
2023-03-11T14:12:16.952Z,17.19
2023-03-11T14:13:15.308Z,17.20
2023-03-11T14:14:15.311Z,17.20
2023-03-11T14:15:15.346Z,17.19
2023-03-11T14:16:15.377Z,17.19
2023-03-11T14:17:16.184Z,17.19
2023-03-11T14:18:15.397Z,17.20
2023-03-11T14:19:16.230Z,17.19
2023-03-11T14:20:15.482Z,17.21
2023-03-11T14:21:15.461Z,17.21
2023-03-11T14:22:15.441Z,17.19
2023-03-11T14:23:15.453Z,17.20
2023-03-11T14:24:15.466Z,17.20
2023-03-11T14:25:15.487Z,17.21
2023-03-11T14:26:15.496Z,17.22
2023-03-11T14:27:15.526Z,17.22
2023-03-11T14:28:15.543Z,17.22
2023-03-11T14:29:16.172Z,17.22
2023-03-11T14:30:15.565Z,17.21
2023-03-11T14:31:15.595Z,17.21
2023-03-11T14:32:15.693Z,17.21
2023-03-11T14:33:15.625Z,17.20
2023-03-11T14:34:15.655Z,17.21
2023-03-11T14:35:15.668Z,17.20
2023-03-11T14:36:15.758Z,17.20
2023-03-11T14:37:15.676Z,17.20
2023-03-11T14:38:15.706Z,17.19
2023-03-11T14:39:15.710Z,17.20
2023-03-11T14:40:15.735Z,17.19
2023-03-11T14:41:15.749Z,17.19
2023-03-11T14:42:15.782Z,17.19
2023-03-11T14:43:16.687Z,17.18
2023-03-11T14:44:15.816Z,17.18
2023-03-11T14:45:15.823Z,17.18
2023-03-11T14:46:15.875Z,17.19
2023-03-11T14:47:15.863Z,17.19
2023-03-11T14:48:15.875Z,17.20
2023-03-11T14:49:15.987Z,17.21
2023-03-11T14:50:15.926Z,17.22
2023-03-11T14:51:15.941Z,17.20
2023-03-11T14:52:15.960Z,17.21
2023-03-11T14:53:15.998Z,17.20
2023-03-11T14:54:15.996Z,17.22
2023-03-11T14:55:16.021Z,17.21
2023-03-11T14:56:16.037Z,17.21
2023-03-11T14:57:16.059Z,17.21
2023-03-11T14:58:16.193Z,17.22
2023-03-11T14:59:16.094Z,17.21
2023-03-11T15:00:16.088Z,17.21
2023-03-11T15:01:16.130Z,17.22
2023-03-11T15:02:16.224Z,17.24
2023-03-11T15:03:16.695Z,17.24
2023-03-11T15:04:16.212Z,17.25
2023-03-11T15:05:16.178Z,17.23
2023-03-11T15:06:16.189Z,17.23
2023-03-11T15:07:16.226Z,17.24
2023-03-11T15:08:16.235Z,17.23
2023-03-11T15:09:17.175Z,17.23
2023-03-11T15:10:16.278Z,17.23
2023-03-11T15:11:16.314Z,17.23
2023-03-11T15:12:16.307Z,17.23
2023-03-11T15:13:16.317Z,17.24
2023-03-11T15:14:16.351Z,17.24
2023-03-11T15:15:16.382Z,17.24
2023-03-11T15:16:17.225Z,17.23
2023-03-11T15:17:32.833Z,17.23
2023-03-11T17:10:18.942Z,17.22
2023-03-11T17:11:18.957Z,17.21
2023-03-11T17:12:19.128Z,17.23
2023-03-11T17:13:19.299Z,17.23
2023-03-11T17:14:19.026Z,17.23
2023-03-11T17:15:19.056Z,17.22
2023-03-11T17:16:19.119Z,17.22
2023-03-11T17:17:19.095Z,17.21
2023-03-11T17:18:19.102Z,17.21
2023-03-11T17:19:19.729Z,17.22
2023-03-11T17:20:21.510Z,17.21
2023-03-11T17:21:19.285Z,17.21
2023-03-11T17:22:19.323Z,17.21
2023-03-11T17:23:19.342Z,17.21
2023-03-11T17:24:19.376Z,17.22
2023-03-11T17:25:19.397Z,17.21
2023-03-11T17:26:19.414Z,17.21
2023-03-11T17:27:19.436Z,17.21
2023-03-11T17:28:19.463Z,17.20
2023-03-11T17:29:19.483Z,17.20
2023-03-11T17:30:34.135Z,17.19
2023-03-11T17:31:20.642Z,17.21
2023-03-11T17:32:19.583Z,17.19
2023-03-11T17:33:19.552Z,17.20
2023-03-11T17:34:19.564Z,17.20
2023-03-11T17:35:19.662Z,17.20
2023-03-11T17:36:19.590Z,17.20
2023-03-11T17:37:19.607Z,17.21
2023-03-11T17:38:19.610Z,17.21
2023-03-11T17:39:19.635Z,17.21
2023-03-11T17:40:19.639Z,17.20
2023-03-11T17:41:19.744Z,17.20
2023-03-11T17:42:19.682Z,17.19
2023-03-11T17:43:19.702Z,17.19
2023-03-11T17:44:19.717Z,17.20
2023-03-11T17:45:19.743Z,17.19
2023-03-11T17:46:20.795Z,17.21
2023-03-11T17:47:20.785Z,17.19
2023-03-11T17:48:19.771Z,17.20
2023-03-11T17:49:19.790Z,17.20
2023-03-11T17:50:19.820Z,17.20
2023-03-11T17:51:19.898Z,17.21
2023-03-11T17:52:19.839Z,17.21
2023-03-11T17:53:19.856Z,17.21
2023-03-11T17:54:19.881Z,17.20
2023-03-11T17:55:19.883Z,17.20
2023-03-11T17:56:19.903Z,17.20
2023-03-11T17:57:19.922Z,17.20
2023-03-11T17:58:19.931Z,17.21
2023-03-11T17:59:20.014Z,17.20
2023-03-11T18:00:19.958Z,17.21
2023-03-11T18:01:19.973Z,17.20
2023-03-11T18:02:20.009Z,17.20
2023-03-11T18:03:20.021Z,17.21
2023-03-11T18:04:20.075Z,17.22
2023-03-11T18:05:20.071Z,17.22
2023-03-11T18:06:20.735Z,17.23
2023-03-11T18:07:20.106Z,17.23
2023-03-11T18:08:20.141Z,17.23
2023-03-11T18:09:20.150Z,17.23
2023-03-11T18:10:20.223Z,17.23
2023-03-11T18:11:20.198Z,17.22
2023-03-11T18:12:20.227Z,17.21
2023-03-11T18:13:21.232Z,17.22
2023-03-11T18:14:20.274Z,17.21
2023-03-11T18:15:20.309Z,17.21
2023-03-11T18:16:20.352Z,17.21
2023-03-11T18:17:20.736Z,17.21
2023-03-11T18:18:20.364Z,17.22
2023-03-11T18:19:20.463Z,17.23
2023-03-11T18:20:20.447Z,17.23
2023-03-11T18:21:20.452Z,17.23
2023-03-11T18:22:20.471Z,17.23
2023-03-11T18:23:20.509Z,17.22
2023-03-11T18:24:20.534Z,17.20
2023-03-11T18:25:20.554Z,17.19
2023-03-11T18:26:20.569Z,17.18
2023-03-11T18:27:20.605Z,17.17
2023-03-11T18:28:21.250Z,17.17
2023-03-11T18:29:20.668Z,17.17
2023-03-11T18:30:20.694Z,17.17
2023-03-11T18:31:20.744Z,17.16
2023-03-11T18:32:20.841Z,17.16
2023-03-11T18:33:20.754Z,17.15
2023-03-11T18:34:21.734Z,17.14
2023-03-11T18:35:20.806Z,17.15
2023-03-11T18:36:20.827Z,17.14
2023-03-11T18:37:20.856Z,17.13
2023-03-11T18:38:20.879Z,17.13
2023-03-11T18:39:20.896Z,17.13
2023-03-11T18:40:20.925Z,17.13
2023-03-11T18:41:20.998Z,17.12
2023-03-11T18:42:20.975Z,17.12
2023-03-11T18:43:21.007Z,17.12
2023-03-11T18:44:21.039Z,17.12
2023-03-11T18:45:21.055Z,17.13
2023-03-11T18:46:21.826Z,17.13
2023-03-11T18:47:21.115Z,17.14
2023-03-11T18:48:21.142Z,17.14
2023-03-11T18:49:21.185Z,17.13
2023-03-11T18:50:21.188Z,17.13
2023-03-11T18:51:21.280Z,17.12
2023-03-11T18:52:21.245Z,17.12
2023-03-11T18:53:21.261Z,17.11
2023-03-11T18:54:21.294Z,17.11
2023-03-11T18:55:21.315Z,17.11
2023-03-11T18:56:21.343Z,17.12
2023-03-11T18:57:21.361Z,17.12
2023-03-11T18:58:21.400Z,17.12
2023-03-11T18:59:21.418Z,17.11
2023-03-11T19:00:21.453Z,17.11
2023-03-11T19:01:21.624Z,17.11
2023-03-11T19:02:21.498Z,17.10
2023-03-11T19:03:21.520Z,17.11
2023-03-11T19:04:21.536Z,17.11
2023-03-11T19:05:21.690Z,17.12
2023-03-11T19:06:21.593Z,17.13
2023-03-11T19:07:21.620Z,17.12
2023-03-11T19:08:21.639Z,17.12
2023-03-11T19:09:21.670Z,17.12
2023-03-11T19:10:21.689Z,17.12
2023-03-11T19:11:21.725Z,17.11
2023-03-11T19:12:21.741Z,17.13
2023-03-11T19:13:21.758Z,17.13
2023-03-11T19:14:21.782Z,17.13
2023-03-11T19:15:21.806Z,17.13
2023-03-11T19:16:21.913Z,17.14
2023-03-11T19:17:21.848Z,17.14
2023-03-11T19:18:21.879Z,17.13
2023-03-11T19:19:21.902Z,17.13
2023-03-11T19:20:21.923Z,17.12
2023-03-11T19:21:21.939Z,17.12
2023-03-11T19:22:21.978Z,17.12
2023-03-11T19:23:21.989Z,17.12
2023-03-11T19:24:22.011Z,17.12
2023-03-11T19:25:22.028Z,17.12
2023-03-11T19:26:30.747Z,17.12
2023-03-11T19:27:23.074Z,17.12
2023-03-11T19:28:22.067Z,17.11
2023-03-11T19:29:22.083Z,17.11
2023-03-11T19:30:22.774Z,17.11
2023-03-11T19:31:22.194Z,17.11
2023-03-11T19:32:22.138Z,17.11
2023-03-11T19:33:22.263Z,17.11
2023-03-11T19:34:22.136Z,17.11
2023-03-11T19:35:22.143Z,17.11
2023-03-11T19:36:22.166Z,17.11
2023-03-11T19:37:22.176Z,17.11
2023-03-11T19:38:22.197Z,17.10
2023-03-11T19:39:22.218Z,17.10
2023-03-11T19:40:22.208Z,17.10
2023-03-11T19:41:22.233Z,17.11
2023-03-11T19:42:22.269Z,17.12
2023-03-11T19:43:22.271Z,17.13
2023-03-11T19:44:22.297Z,17.12
2023-03-11T19:45:22.292Z,17.12
2023-03-11T19:46:22.415Z,17.13
2023-03-11T19:47:22.322Z,17.13
2023-03-11T19:48:22.351Z,17.13
2023-03-11T19:49:22.356Z,17.13
2023-03-11T19:50:22.367Z,17.13
2023-03-11T19:51:22.406Z,17.12
2023-03-11T19:52:22.431Z,17.13
2023-03-11T19:53:22.421Z,17.14
2023-03-11T19:54:22.500Z,17.13
2023-03-11T19:55:23.258Z,17.13
2023-03-11T19:56:22.483Z,17.12
2023-03-11T19:57:22.518Z,17.13
2023-03-11T19:58:22.482Z,17.12
2023-03-11T19:59:22.505Z,17.12
2023-03-11T20:00:22.523Z,17.12
2023-03-11T20:01:22.605Z,17.12
2023-03-11T20:02:22.621Z,17.12
2023-03-11T20:03:22.603Z,17.13
2023-03-11T20:04:22.671Z,17.15
2023-03-11T20:05:22.671Z,17.16
2023-03-11T20:06:22.773Z,17.17
2023-03-11T20:07:22.717Z,17.16
2023-03-11T20:08:22.741Z,17.17
2023-03-11T20:09:22.753Z,17.16
2023-03-11T20:10:22.771Z,17.15
2023-03-11T20:11:22.813Z,17.14
2023-03-11T20:12:22.830Z,17.15
2023-03-11T20:13:22.983Z,17.15
2023-03-11T20:14:22.980Z,17.15
2023-03-11T20:15:22.963Z,17.14
2023-03-11T20:16:22.953Z,17.15
2023-03-11T20:17:22.940Z,17.15
2023-03-11T20:18:22.968Z,17.15
2023-03-11T20:19:23.038Z,17.15
2023-03-11T21:29:24.956Z,17.15
2023-03-11T21:30:24.930Z,17.17
2023-03-11T21:31:27.190Z,17.17
2023-03-11T21:32:25.130Z,17.16
2023-03-11T21:33:25.133Z,17.16
2023-03-11T21:35:25.104Z,17.15
2023-03-11T21:37:25.178Z,17.15
2023-03-11T21:38:25.226Z,17.16
2023-03-11T21:39:25.160Z,17.17
2023-03-11T21:40:25.300Z,17.17
2023-03-11T21:41:25.253Z,17.18
2023-03-11T21:42:25.293Z,17.17
2023-03-11T21:43:25.373Z,17.17
2023-03-11T21:44:25.282Z,17.18
2023-03-11T21:45:25.384Z,17.19
2023-03-11T21:46:25.528Z,17.18
2023-03-11T21:47:25.401Z,17.17
2023-03-11T21:48:25.417Z,17.17
2023-03-11T21:49:25.511Z,17.16
2023-03-11T21:50:25.491Z,17.16
2023-03-11T21:51:25.515Z,17.16
2023-03-11T21:52:25.524Z,17.16
2023-03-11T21:53:25.675Z,17.17
2023-03-11T21:54:25.635Z,17.16
2023-03-11T21:55:25.623Z,17.15
2023-03-11T21:56:25.766Z,17.16
2023-03-11T21:57:25.781Z,17.16
2023-03-11T21:58:25.875Z,17.16
2023-03-11T21:59:26.088Z,17.16
2023-03-11T22:00:25.860Z,17.17
2023-03-11T22:01:25.982Z,17.17
2023-03-11T22:02:25.841Z,17.17
2023-03-11T22:03:26.171Z,17.17
2023-03-11T22:04:25.927Z,17.17
2023-03-11T22:05:25.946Z,17.16
2023-03-11T22:06:26.041Z,17.17
2023-03-11T22:07:26.111Z,17.16
2023-03-11T22:08:26.060Z,17.16
2023-03-11T22:09:26.311Z,17.15
2023-03-11T22:10:26.208Z,17.17
2023-03-11T22:11:26.134Z,17.17
2023-03-11T22:12:26.870Z,17.16
2023-03-11T22:13:26.148Z,17.16
2023-03-11T22:14:26.364Z,17.15
2023-03-11T22:15:26.284Z,17.15
2023-03-11T22:16:26.286Z,17.15
2023-03-11T22:17:26.474Z,17.15
2023-03-11T22:18:26.350Z,17.17
2023-03-11T22:19:26.316Z,17.17
2023-03-11T22:20:26.344Z,17.17
2023-03-11T22:21:26.476Z,17.17
2023-03-11T22:22:26.496Z,17.17
2023-03-11T22:23:26.453Z,17.16
2023-03-11T22:24:26.503Z,17.15
2023-03-11T22:25:26.553Z,17.17
2023-03-11T22:26:26.631Z,17.17
2023-03-11T22:27:26.695Z,17.17
2023-03-11T22:28:26.750Z,17.18
2023-03-11T22:29:26.810Z,17.18
2023-03-11T22:30:26.882Z,17.17
2023-03-11T22:31:26.951Z,17.17
2023-03-11T22:32:27.009Z,17.17
2023-03-11T22:33:27.009Z,17.16
2023-03-11T22:34:27.036Z,17.17
2023-03-11T22:35:27.097Z,17.17
2023-03-11T22:36:27.120Z,17.17
2023-03-11T22:37:27.146Z,17.16
2023-03-11T22:38:27.198Z,17.16
2023-03-11T22:39:27.255Z,17.16
2023-03-11T22:40:27.325Z,17.17
2023-03-11T22:41:27.346Z,17.17
2023-03-11T22:42:27.401Z,17.18
2023-03-11T22:43:27.456Z,17.18
2023-03-11T22:44:27.490Z,17.19
2023-03-11T22:45:27.555Z,17.18
2023-03-11T22:46:27.761Z,17.18
2023-03-11T22:47:27.815Z,17.19
2023-03-11T22:48:27.801Z,17.20
2023-03-11T22:49:27.839Z,17.18
2023-03-11T22:50:27.904Z,17.18
2023-03-11T22:51:27.944Z,17.18
2023-03-11T22:52:27.986Z,17.18
2023-03-11T22:53:28.029Z,17.18
2023-03-11T22:54:28.086Z,17.18
2023-03-11T22:55:28.080Z,17.17
2023-03-11T22:56:28.138Z,17.18
2023-03-11T22:57:28.162Z,17.17
2023-03-11T22:59:28.229Z,17.17
2023-03-11T23:00:28.256Z,17.16
2023-03-11T23:01:28.296Z,17.16
2023-03-11T23:02:28.319Z,17.16
2023-03-11T23:03:28.381Z,17.17
2023-03-11T23:04:28.387Z,17.16
2023-03-11T23:05:28.430Z,17.17
2023-03-11T23:06:28.460Z,17.17
2023-03-11T23:07:28.483Z,17.17
2023-03-11T23:08:28.518Z,17.17
2023-03-11T23:09:28.551Z,17.18
2023-03-11T23:10:28.599Z,17.18
2023-03-11T23:11:28.635Z,17.17
2023-03-11T23:12:28.673Z,17.18
2023-03-11T23:13:28.695Z,17.17
2023-03-11T23:14:43.578Z,17.17
2023-03-11T23:15:29.770Z,17.18
2023-03-11T23:16:29.385Z,17.18
2023-03-11T23:17:28.824Z,17.18
2023-03-11T23:18:28.892Z,17.18
2023-03-11T23:19:28.950Z,17.18
2023-03-11T23:20:28.904Z,17.18
2023-03-11T23:21:28.961Z,17.19
2023-03-11T23:22:28.957Z,17.19
2023-03-11T23:23:28.982Z,17.19
2023-03-11T23:24:29.005Z,17.19
2023-03-11T23:25:29.028Z,17.19
2023-03-11T23:26:29.056Z,17.18
2023-03-11T23:27:29.095Z,17.18
2023-03-11T23:28:29.103Z,17.18
2023-03-11T23:29:29.116Z,17.18
2023-03-11T23:30:29.154Z,17.18
2023-03-11T23:31:29.247Z,17.17
2023-03-11T23:32:29.288Z,17.16
2023-03-11T23:33:29.197Z,17.17
2023-03-11T23:34:29.227Z,17.17
2023-03-11T23:35:29.842Z,17.17
2023-03-11T23:36:29.296Z,17.16
2023-03-11T23:37:29.291Z,17.16
2023-03-11T23:38:29.323Z,17.16
2023-03-11T23:39:29.354Z,17.16
2023-03-11T23:40:29.380Z,17.16
2023-03-11T23:41:29.439Z,17.16
2023-03-11T23:42:29.424Z,17.16
2023-03-11T23:43:29.463Z,17.15
2023-03-11T23:44:29.502Z,17.15
2023-03-11T23:45:29.574Z,17.15
2023-03-11T23:46:29.659Z,17.15
2023-03-11T23:47:29.619Z,17.14
2023-03-11T23:48:29.653Z,17.14
2023-03-11T23:49:29.694Z,17.14
2023-03-11T23:50:29.710Z,17.13
2023-03-11T23:51:29.749Z,17.13
2023-03-11T23:52:29.780Z,17.13
2023-03-11T23:53:29.833Z,17.13
2023-03-11T23:54:29.845Z,17.14
2023-03-11T23:55:29.886Z,17.14
2023-03-11T23:56:29.926Z,17.14
2023-03-11T23:57:30.027Z,17.13
2023-03-11T23:58:29.979Z,17.13
2023-03-11T23:59:30.017Z,17.14
